CheckWX is a tool to help pilots better visualize weather data.  It is not intended as a substitute for an official pre-flight weather briefing.

05:19:22 UTC

SBCJ TAF
Carajás Airport
Carajás, Brazil
TAF SBCJ 192200Z 2000/2012 00000KT CAVOK TN19/2005Z TX23/2012Z BECMG 2008/2010 8000 SCT006 RMK PFM

Feb-20@
00:00 UTC

Feb-20 @ 00:00 UTC

Feb-20@
08:00 UTC

Feb-20 @ 08:00 UTC

TAF SBCJ 192200Z 2000/2012 00000KT CAVOK TN19/2005Z TX23/2012Z
Visibility
10,000+ meters
Cloud Levels
  • No significant clouds

Feb-20@
08:00 UTC

Feb-20 @ 08:00 UTC

Feb-20@
12:00 UTC

Feb-20 @ 12:00 UTC

BECMG 2008/2010 8000 SCT006 RMK PFM

Becoming

BecomingConditions expected by Wed, Feb 20, 2019 @ 10:00 UTC

Visibility
7,998 meters
Cloud Levels
  • Scattered at 600' AGL